createdAt,value
2022-08-14T00:03:20.219Z,9.77
2022-08-14T00:08:45.174Z,9.88
2022-08-14T00:13:52.977Z,12.85
2022-08-14T00:19:18.826Z,11.98
2022-08-14T00:24:28.180Z,11.23
2022-08-14T00:29:40.588Z,10.05
2022-08-14T00:34:47.111Z,10.63
2022-08-14T00:39:52.928Z,12.18
2022-08-14T00:44:57.528Z,11.63
2022-08-14T00:50:02.667Z,10.63
2022-08-14T00:55:09.313Z,9.32
2022-08-14T01:00:34.382Z,11.30
2022-08-14T01:05:41.868Z,10.10
2022-08-14T01:10:57.698Z,10.20
2022-08-14T01:16:04.545Z,9.77
2022-08-14T01:21:17.752Z,10.77
2022-08-14T01:26:35.124Z,9.18
2022-08-14T01:31:45.437Z,16.15
2022-08-14T01:36:54.392Z,9.48
2022-08-14T01:42:01.342Z,10.55
2022-08-14T01:47:21.686Z,10.27
2022-08-14T01:52:34.277Z,10.25
2022-08-14T01:58:18.164Z,11.43
2022-08-14T02:03:13.668Z,10.90
2022-08-14T02:08:22.466Z,11.20
2022-08-14T02:13:39.563Z,11.30
2022-08-14T02:18:46.611Z,10.77
2022-08-14T02:23:53.559Z,11.50
2022-08-14T02:29:00.537Z,12.32
2022-08-14T02:34:19.947Z,12.10
2022-08-14T02:39:26.147Z,11.88
2022-08-14T02:44:32.299Z,12.27
2022-08-14T02:49:42.988Z,14.43
2022-08-14T02:54:46.376Z,15.52
2022-08-14T02:59:52.418Z,15.18
2022-08-14T03:04:55.996Z,16.40
2022-08-14T03:10:27.484Z,18.02
2022-08-14T03:15:25.442Z,20.50
2022-08-14T03:20:30.610Z,18.60
2022-08-14T03:25:37.690Z,18.20
2022-08-14T03:30:43.879Z,16.58
2022-08-14T03:36:07.603Z,18.08
2022-08-14T03:41:14.584Z,17.30
2022-08-14T03:46:38.730Z,17.52
2022-08-14T03:51:42.428Z,17.85
2022-08-14T03:56:46.547Z,16.33
2022-08-14T04:02:01.167Z,18.20
2022-08-14T04:12:13.527Z,18.00
2022-08-14T04:17:18.839Z,20.42
2022-08-14T04:22:23.983Z,20.33
2022-08-14T04:27:27.989Z,19.08
2022-08-14T04:32:58.391Z,20.92
2022-08-14T04:38:38.411Z,21.85
2022-08-14T04:43:40.296Z,18.55
2022-08-14T04:48:51.394Z,20.00
2022-08-14T04:54:00.485Z,16.08
2022-08-14T04:59:09.971Z,18.50
2022-08-14T05:04:16.272Z,18.60
2022-08-14T05:09:24.571Z,19.58
2022-08-14T05:14:43.050Z,18.83
2022-08-14T05:21:04.934Z,19.75
2022-08-14T05:25:14.992Z,18.50
2022-08-14T05:30:20.272Z,18.92
2022-08-14T05:35:24.967Z,18.08
2022-08-14T05:40:29.850Z,17.55
2022-08-14T05:45:35.746Z,17.25
2022-08-14T05:50:41.465Z,17.77
2022-08-14T05:55:45.324Z,17.98
2022-08-14T06:00:50.095Z,18.42
2022-08-14T06:05:57.784Z,18.38
2022-08-14T06:11:05.902Z,19.25
2022-08-14T06:16:09.664Z,19.50
2022-08-14T06:21:17.512Z,19.10
2022-08-14T06:26:22.438Z,19.15
2022-08-14T06:31:25.786Z,19.92
2022-08-14T06:36:30.540Z,21.65
2022-08-14T06:41:57.244Z,20.13
2022-08-14T06:46:56.559Z,19.45
2022-08-14T06:52:01.055Z,18.88
2022-08-14T06:57:05.115Z,20.60
2022-08-14T07:02:29.218Z,19.13
2022-08-14T07:07:39.192Z,19.58
2022-08-14T07:13:01.015Z,18.98
2022-08-14T07:18:08.918Z,19.95
2022-08-14T07:23:20.693Z,18.80
2022-08-14T07:28:27.679Z,18.98
2022-08-14T07:33:35.571Z,18.05
2022-08-14T07:38:41.413Z,17.98
2022-08-14T07:43:55.250Z,18.90
2022-08-14T07:48:59.864Z,18.65
2022-08-14T07:54:10.911Z,19.13
2022-08-14T07:59:14.673Z,20.02
2022-08-14T08:04:24.280Z,20.13
2022-08-14T08:09:33.050Z,19.63
2022-08-14T08:14:55.608Z,18.10
2022-08-14T08:19:59.795Z,18.67
2022-08-14T08:25:08.552Z,18.13
2022-08-14T08:30:17.006Z,18.63
2022-08-14T08:35:23.784Z,18.23
2022-08-14T08:40:30.961Z,18.52
2022-08-14T08:45:35.914Z,17.73
2022-08-14T08:55:45.048Z,17.05
2022-08-14T09:00:54.459Z,17.05
2022-08-14T09:06:01.094Z,17.00
2022-08-14T09:11:19.486Z,16.85
2022-08-14T09:16:28.273Z,16.45
2022-08-14T09:21:32.181Z,16.55
2022-08-14T09:26:37.627Z,16.17
2022-08-14T09:31:52.737Z,15.23
2022-08-14T09:37:18.309Z,15.25
2022-08-14T09:42:49.849Z,14.93
2022-08-14T09:47:56.230Z,15.55
2022-08-14T09:53:04.025Z,14.38
2022-08-14T09:58:19.654Z,14.80
2022-08-14T10:03:33.234Z,15.35
2022-08-14T10:08:45.243Z,16.07
2022-08-14T10:13:58.913Z,14.10
2022-08-14T10:19:05.250Z,13.32
2022-08-14T10:24:11.171Z,13.70
2022-08-14T10:29:32.171Z,14.17
2022-08-14T10:34:38.767Z,14.38
2022-08-14T10:40:01.461Z,14.18
2022-08-14T10:45:21.645Z,14.13
2022-08-14T10:50:32.749Z,13.73
2022-08-14T10:55:45.566Z,13.75
2022-08-14T11:00:58.611Z,13.70
2022-08-14T11:06:14.802Z,13.82
2022-08-14T11:11:19.850Z,12.95
2022-08-14T11:16:27.146Z,14.00
2022-08-14T11:21:34.122Z,14.63
2022-08-14T11:26:38.985Z,14.82
2022-08-14T11:31:43.595Z,15.05
2022-08-14T11:37:02.530Z,13.63
2022-08-14T11:42:56.141Z,13.55
2022-08-14T11:48:13.041Z,14.20
2022-08-14T11:53:20.477Z,12.95
2022-08-14T11:58:28.498Z,14.10
2022-08-14T12:03:51.200Z,14.38
2022-08-14T12:08:59.784Z,15.27
2022-08-14T12:14:08.835Z,14.70
2022-08-14T12:19:51.460Z,14.70
2022-08-14T12:24:57.422Z,14.75
2022-08-14T12:30:01.339Z,14.15
2022-08-14T12:35:07.265Z,14.10
2022-08-14T12:40:19.636Z,13.65
2022-08-14T12:45:33.521Z,13.53
2022-08-14T12:50:40.838Z,14.23
2022-08-14T12:56:22.512Z,13.73
2022-08-14T13:01:20.759Z,14.20
2022-08-14T13:06:27.496Z,12.80
2022-08-14T13:11:36.820Z,14.10
2022-08-14T13:16:44.572Z,13.27
2022-08-14T13:22:04.986Z,13.60
2022-08-14T13:27:13.334Z,12.15
2022-08-14T13:32:18.255Z,13.00
2022-08-14T13:37:22.993Z,13.43
2022-08-14T13:42:31.650Z,13.38
2022-08-14T13:47:35.717Z,14.10
2022-08-14T13:52:52.765Z,13.45
2022-08-14T13:58:05.154Z,13.13
2022-08-14T14:03:09.279Z,13.32
2022-08-14T14:08:18.851Z,13.02
2022-08-14T14:13:41.875Z,12.38
2022-08-14T14:18:52.348Z,12.48
2022-08-14T14:23:58.265Z,12.90
2022-08-14T14:29:03.140Z,12.60
2022-08-14T14:34:12.700Z,12.88
2022-08-14T14:39:35.414Z,12.50
2022-08-14T14:44:42.441Z,12.38
2022-08-14T14:49:54.800Z,13.25
2022-08-14T14:55:00.151Z,12.35
2022-08-14T15:00:05.385Z,13.63
2022-08-14T15:05:09.731Z,12.20
2022-08-14T15:10:27.964Z,12.05
2022-08-14T15:15:36.947Z,13.23
2022-08-14T15:20:42.038Z,12.13
2022-08-14T15:25:52.284Z,12.93
2022-08-14T15:30:58.970Z,13.43
2022-08-14T15:36:04.155Z,14.10
2022-08-14T15:41:08.787Z,14.13
2022-08-14T15:46:41.126Z,14.13
2022-08-14T15:51:35.163Z,15.43
2022-08-14T15:56:46.673Z,14.80
2022-08-14T16:01:54.565Z,13.63
2022-08-14T16:06:58.162Z,14.95
2022-08-14T16:12:02.789Z,15.30
2022-08-14T16:17:09.304Z,15.32
2022-08-14T16:22:57.426Z,14.88
2022-08-14T16:33:05.697Z,14.98
2022-08-14T16:38:19.850Z,16.08
2022-08-14T16:40:24.432Z,15.73
2022-08-14T16:43:35.013Z,14.73
2022-08-14T16:48:58.005Z,15.73
2022-08-14T16:54:03.553Z,14.93
2022-08-14T16:59:30.492Z,15.48
2022-08-14T17:04:49.367Z,15.98
2022-08-14T17:09:54.728Z,16.48
2022-08-14T17:15:09.887Z,16.73
2022-08-14T17:20:39.217Z,16.30
2022-08-14T17:25:38.023Z,15.35
2022-08-14T17:30:51.382Z,16.75
2022-08-14T17:36:09.838Z,17.58
2022-08-14T17:41:23.728Z,18.02
2022-08-14T17:46:43.578Z,16.88
2022-08-14T17:52:07.807Z,17.92
2022-08-14T17:57:28.413Z,18.05
2022-08-14T18:02:38.250Z,19.83
2022-08-14T18:08:00.197Z,19.02
2022-08-14T18:13:05.467Z,20.55
2022-08-14T18:18:13.594Z,19.77
2022-08-14T18:23:19.340Z,18.92
2022-08-14T18:28:45.045Z,17.25
2022-08-14T18:33:56.234Z,17.02
2022-08-14T18:39:21.145Z,13.90
2022-08-14T18:45:12.940Z,13.30
2022-08-14T18:50:27.346Z,11.35
2022-08-14T18:55:54.037Z,11.20
2022-08-14T19:00:59.311Z,13.90
2022-08-14T19:06:05.930Z,11.82
2022-08-14T19:11:45.718Z,10.85
2022-08-14T19:16:54.242Z,11.27
2022-08-14T19:21:59.286Z,10.82
2022-08-14T19:27:19.302Z,11.68
2022-08-14T19:32:41.065Z,11.65
2022-08-14T19:37:48.452Z,10.35
2022-08-14T19:42:58.310Z,10.65
2022-08-14T19:48:02.732Z,12.00
2022-08-14T19:53:11.628Z,11.93
2022-08-14T19:58:26.023Z,12.63
2022-08-14T20:04:00.108Z,12.85
2022-08-14T20:11:07.902Z,12.93
2022-08-14T20:14:31.554Z,12.43
2022-08-14T20:19:41.364Z,13.43
2022-08-14T20:24:47.410Z,13.38
2022-08-14T20:30:34.256Z,13.52
2022-08-14T20:40:50.547Z,12.80
2022-08-14T20:45:53.780Z,13.88
2022-08-14T20:50:58.796Z,12.90
2022-08-14T20:56:28.909Z,12.15
2022-08-14T21:01:36.611Z,12.30
2022-08-14T21:07:22.952Z,11.75
2022-08-14T21:12:04.944Z,13.20
2022-08-14T21:17:09.559Z,11.35
2022-08-14T21:22:13.354Z,11.60
2022-08-14T21:27:21.666Z,10.65
2022-08-14T21:32:47.127Z,11.60
2022-08-14T21:37:54.427Z,11.73
2022-08-14T21:42:59.038Z,11.38
2022-08-14T21:48:10.739Z,12.85
2022-08-14T21:53:15.313Z,12.15
2022-08-14T21:58:53.919Z,12.50
2022-08-14T22:03:44.949Z,12.32
2022-08-14T22:08:52.944Z,12.15
2022-08-14T22:13:56.560Z,12.18
2022-08-14T22:19:11.207Z,12.75
2022-08-14T22:24:25.941Z,13.25
2022-08-14T22:29:42.735Z,13.32
2022-08-14T22:34:48.665Z,13.27
2022-08-14T22:40:53.925Z,13.85
2022-08-14T22:45:15.217Z,14.13
2022-08-14T22:50:31.016Z,14.50
2022-08-14T22:55:36.493Z,15.25
2022-08-14T23:00:40.456Z,14.60
2022-08-14T23:05:51.778Z,15.27
2022-08-14T23:10:56.113Z,14.35
2022-08-14T23:15:59.148Z,15.55
2022-08-14T23:21:03.981Z,15.32
2022-08-14T23:26:49.570Z,14.85
2022-08-14T23:31:36.183Z,14.32
2022-08-14T23:36:53.039Z,13.93
2022-08-14T23:42:02.526Z,15.02
2022-08-14T23:47:11.967Z,14.13
2022-08-14T23:52:55.804Z,13.50
2022-08-14T23:58:00.659Z,14.45
